sensor_id;sensor_type;location;lat;lon;timestamp;temperature;humidity
26336;DHT22;14047;50.936;4.654;2023-04-10T00:00:16;11.30;99.90
26336;DHT22;14047;50.936;4.654;2023-04-10T00:02:42;11.20;99.90
26336;DHT22;14047;50.936;4.654;2023-04-10T00:05:10;11.10;99.90
26336;DHT22;14047;50.936;4.654;2023-04-10T00:07:35;11.00;99.90
26336;DHT22;14047;50.936;4.654;2023-04-10T00:10:01;11.10;99.90
26336;DHT22;14047;50.936;4.654;2023-04-10T00:12:28;11.10;99.90
26336;DHT22;14047;50.936;4.654;2023-04-10T00:14:54;11.10;99.90
26336;DHT22;14047;50.936;4.654;2023-04-10T00:17:20;11.20;99.90
26336;DHT22;14047;50.936;4.654;2023-04-10T00:19:46;11.20;99.90
26336;DHT22;14047;50.936;4.654;2023-04-10T00:22:11;11.10;99.90
26336;DHT22;14047;50.936;4.654;2023-04-10T00:24:37;11.20;99.90
26336;DHT22;14047;50.936;4.654;2023-04-10T00:27:03;11.20;99.90
26336;DHT22;14047;50.936;4.654;2023-04-10T00:29:29;11.20;99.90
26336;DHT22;14047;50.936;4.654;2023-04-10T00:31:55;11.20;99.90
26336;DHT22;14047;50.936;4.654;2023-04-10T00:34:21;11.20;99.90
26336;DHT22;14047;50.936;4.654;2023-04-10T00:36:47;11.30;99.90
26336;DHT22;14047;50.936;4.654;2023-04-10T00:39:13;11.30;99.90
26336;DHT22;14047;50.936;4.654;2023-04-10T00:41:39;11.30;99.90
26336;DHT22;14047;50.936;4.654;2023-04-10T00:44:05;11.20;99.90
26336;DHT22;14047;50.936;4.654;2023-04-10T00:46:31;11.20;99.90
26336;DHT22;14047;50.936;4.654;2023-04-10T00:48:57;11.20;99.90
26336;DHT22;14047;50.936;4.654;2023-04-10T00:51:23;11.10;99.90
26336;DHT22;14047;50.936;4.654;2023-04-10T00:53:51;11.10;99.90
26336;DHT22;14047;50.936;4.654;2023-04-10T00:56:20;11.10;99.90
26336;DHT22;14047;50.936;4.654;2023-04-10T00:58:48;11.10;99.90
26336;DHT22;14047;50.936;4.654;2023-04-10T01:01:14;11.00;99.90
26336;DHT22;14047;50.936;4.654;2023-04-10T01:03:41;10.90;99.90
26336;DHT22;14047;50.936;4.654;2023-04-10T01:09:34;11.10;99.90
26336;DHT22;14047;50.936;4.654;2023-04-10T01:14:57;11.00;99.90
26336;DHT22;14047;50.936;4.654;2023-04-10T01:17:34;11.00;99.90
26336;DHT22;14047;50.936;4.654;2023-04-10T01:20:08;10.90;99.90
26336;DHT22;14047;50.936;4.654;2023-04-10T01:22:41;10.70;99.90
26336;DHT22;14047;50.936;4.654;2023-04-10T01:25:33;10.80;99.90
26336;DHT22;14047;50.936;4.654;2023-04-10T01:31:12;10.80;99.90
26336;DHT22;14047;50.936;4.654;2023-04-10T01:33:46;10.80;99.90
26336;DHT22;14047;50.936;4.654;2023-04-10T01:36:20;10.90;99.90
26336;DHT22;14047;50.936;4.654;2023-04-10T01:38:48;10.90;99.90
26336;DHT22;14047;50.936;4.654;2023-04-10T01:41:16;10.90;99.90
26336;DHT22;14047;50.936;4.654;2023-04-10T01:43:46;10.90;99.90
26336;DHT22;14047;50.936;4.654;2023-04-10T01:46:13;10.90;99.90
26336;DHT22;14047;50.936;4.654;2023-04-10T01:48:41;11.00;99.90
26336;DHT22;14047;50.936;4.654;2023-04-10T01:51:08;11.00;99.90
26336;DHT22;14047;50.936;4.654;2023-04-10T01:53:35;10.90;99.90
26336;DHT22;14047;50.936;4.654;2023-04-10T01:56:03;10.80;99.90
26336;DHT22;14047;50.936;4.654;2023-04-10T01:58:34;10.80;99.90
26336;DHT22;14047;50.936;4.654;2023-04-10T02:01:01;10.80;99.90
26336;DHT22;14047;50.936;4.654;2023-04-10T02:03:27;10.80;99.90
26336;DHT22;14047;50.936;4.654;2023-04-10T02:08:47;10.90;99.90
26336;DHT22;14047;50.936;4.654;2023-04-10T02:11:33;10.90;99.90
26336;DHT22;14047;50.936;4.654;2023-04-10T02:14:07;10.90;99.90
26336;DHT22;14047;50.936;4.654;2023-04-10T02:16:36;10.90;99.90
26336;DHT22;14047;50.936;4.654;2023-04-10T02:19:03;10.90;99.90
26336;DHT22;14047;50.936;4.654;2023-04-10T02:21:32;10.90;99.90
26336;DHT22;14047;50.936;4.654;2023-04-10T02:23:59;10.90;99.90
26336;DHT22;14047;50.936;4.654;2023-04-10T02:26:25;10.80;99.90
26336;DHT22;14047;50.936;4.654;2023-04-10T02:28:51;10.80;99.90
26336;DHT22;14047;50.936;4.654;2023-04-10T02:31:17;10.60;99.90
26336;DHT22;14047;50.936;4.654;2023-04-10T02:33:43;10.60;99.90
26336;DHT22;14047;50.936;4.654;2023-04-10T02:36:10;10.50;99.90
26336;DHT22;14047;50.936;4.654;2023-04-10T02:38:37;10.60;99.90
26336;DHT22;14047;50.936;4.654;2023-04-10T02:41:03;10.70;99.90
26336;DHT22;14047;50.936;4.654;2023-04-10T02:43:30;10.80;99.90
26336;DHT22;14047;50.936;4.654;2023-04-10T02:45:56;10.80;99.90
26336;DHT22;14047;50.936;4.654;2023-04-10T02:48:25;10.80;99.90
26336;DHT22;14047;50.936;4.654;2023-04-10T02:50:57;10.80;99.90
26336;DHT22;14047;50.936;4.654;2023-04-10T02:53:23;10.80;99.90
26336;DHT22;14047;50.936;4.654;2023-04-10T02:55:54;10.80;99.90
26336;DHT22;14047;50.936;4.654;2023-04-10T02:58:20;10.70;99.90
26336;DHT22;14047;50.936;4.654;2023-04-10T03:00:48;10.70;99.90
26336;DHT22;14047;50.936;4.654;2023-04-10T03:03:21;10.70;99.90
26336;DHT22;14047;50.936;4.654;2023-04-10T03:05:52;10.60;99.90
26336;DHT22;14047;50.936;4.654;2023-04-10T03:08:24;10.60;99.90
26336;DHT22;14047;50.936;4.654;2023-04-10T03:10:50;10.60;99.90
26336;DHT22;14047;50.936;4.654;2023-04-10T03:13:16;10.50;99.90
26336;DHT22;14047;50.936;4.654;2023-04-10T03:15:42;10.50;99.90
26336;DHT22;14047;50.936;4.654;2023-04-10T03:18:08;10.50;99.90
26336;DHT22;14047;50.936;4.654;2023-04-10T03:20:35;10.50;99.90
26336;DHT22;14047;50.936;4.654;2023-04-10T03:23:05;10.40;99.90
26336;DHT22;14047;50.936;4.654;2023-04-10T03:25:35;10.50;99.90
26336;DHT22;14047;50.936;4.654;2023-04-10T03:28:02;10.50;99.90
26336;DHT22;14047;50.936;4.654;2023-04-10T03:30:29;10.40;99.90
26336;DHT22;14047;50.936;4.654;2023-04-10T03:32:55;10.50;99.90
26336;DHT22;14047;50.936;4.654;2023-04-10T03:35:22;10.60;99.90
26336;DHT22;14047;50.936;4.654;2023-04-10T03:37:48;10.50;99.90
26336;DHT22;14047;50.936;4.654;2023-04-10T03:40:14;10.50;99.90
26336;DHT22;14047;50.936;4.654;2023-04-10T03:42:40;10.50;99.90
26336;DHT22;14047;50.936;4.654;2023-04-10T03:45:06;10.50;99.90
26336;DHT22;14047;50.936;4.654;2023-04-10T03:47:33;10.50;99.90
26336;DHT22;14047;50.936;4.654;2023-04-10T03:50:01;10.50;99.90
26336;DHT22;14047;50.936;4.654;2023-04-10T03:52:34;10.50;99.90
26336;DHT22;14047;50.936;4.654;2023-04-10T03:55:00;10.50;99.90
26336;DHT22;14047;50.936;4.654;2023-04-10T03:57:27;10.50;99.90
26336;DHT22;14047;50.936;4.654;2023-04-10T03:59:59;10.50;99.90
26336;DHT22;14047;50.936;4.654;2023-04-10T04:02:32;10.60;99.90
26336;DHT22;14047;50.936;4.654;2023-04-10T04:04:59;10.50;99.90
26336;DHT22;14047;50.936;4.654;2023-04-10T04:07:54;10.40;99.90
26336;DHT22;14047;50.936;4.654;2023-04-10T04:10:32;10.40;99.90
26336;DHT22;14047;50.936;4.654;2023-04-10T04:13:21;10.40;99.90
26336;DHT22;14047;50.936;4.654;2023-04-10T04:16:02;10.30;99.90
26336;DHT22;14047;50.936;4.654;2023-04-10T04:19:05;10.30;99.90
26336;DHT22;14047;50.936;4.654;2023-04-10T04:21:38;10.10;99.90
26336;DHT22;14047;50.936;4.654;2023-04-10T04:24:33;10.10;99.90
26336;DHT22;14047;50.936;4.654;2023-04-10T04:27:03;10.00;99.90
26336;DHT22;14047;50.936;4.654;2023-04-10T04:29:47;10.00;99.90
26336;DHT22;14047;50.936;4.654;2023-04-10T04:32:25;9.90;99.90
26336;DHT22;14047;50.936;4.654;2023-04-10T04:35:14;10.00;99.90
26336;DHT22;14047;50.936;4.654;2023-04-10T04:38:15;9.90;99.90
26336;DHT22;14047;50.936;4.654;2023-04-10T04:40:59;9.90;99.90
26336;DHT22;14047;50.936;4.654;2023-04-10T04:43:40;9.90;99.90
26336;DHT22;14047;50.936;4.654;2023-04-10T04:46:38;9.90;99.90
26336;DHT22;14047;50.936;4.654;2023-04-10T04:49:29;9.90;99.90
26336;DHT22;14047;50.936;4.654;2023-04-10T04:52:14;9.80;99.90
26336;DHT22;14047;50.936;4.654;2023-04-10T04:54:43;9.90;99.90
26336;DHT22;14047;50.936;4.654;2023-04-10T04:57:30;10.00;99.90
26336;DHT22;14047;50.936;4.654;2023-04-10T05:00:15;10.10;99.90
26336;DHT22;14047;50.936;4.654;2023-04-10T05:03:02;10.10;99.90
26336;DHT22;14047;50.936;4.654;2023-04-10T05:06:00;10.10;99.90
26336;DHT22;14047;50.936;4.654;2023-04-10T05:09:04;10.10;99.90
26336;DHT22;14047;50.936;4.654;2023-04-10T05:11:52;10.10;99.90
26336;DHT22;14047;50.936;4.654;2023-04-10T05:14:37;10.10;99.90
26336;DHT22;14047;50.936;4.654;2023-04-10T05:17:25;10.20;99.90
26336;DHT22;14047;50.936;4.654;2023-04-10T05:20:01;10.10;99.90
26336;DHT22;14047;50.936;4.654;2023-04-10T05:22:53;10.00;99.90
26336;DHT22;14047;50.936;4.654;2023-04-10T05:25:46;10.00;99.90
26336;DHT22;14047;50.936;4.654;2023-04-10T05:28:19;10.10;99.90
26336;DHT22;14047;50.936;4.654;2023-04-10T05:31:00;10.10;99.90
26336;DHT22;14047;50.936;4.654;2023-04-10T05:33:44;10.30;99.90
26336;DHT22;14047;50.936;4.654;2023-04-10T05:36:30;10.20;99.90
26336;DHT22;14047;50.936;4.654;2023-04-10T05:39:16;10.30;99.90
26336;DHT22;14047;50.936;4.654;2023-04-10T05:42:05;10.50;99.90
26336;DHT22;14047;50.936;4.654;2023-04-10T05:44:44;10.50;99.90
26336;DHT22;14047;50.936;4.654;2023-04-10T05:47:28;10.60;99.90
26336;DHT22;14047;50.936;4.654;2023-04-10T05:50:05;10.70;99.90
26336;DHT22;14047;50.936;4.654;2023-04-10T05:53:12;10.70;99.90
26336;DHT22;14047;50.936;4.654;2023-04-10T05:55:49;10.80;99.90
26336;DHT22;14047;50.936;4.654;2023-04-10T05:58:36;10.80;99.90
26336;DHT22;14047;50.936;4.654;2023-04-10T06:01:07;11.00;99.90
26336;DHT22;14047;50.936;4.654;2023-04-10T06:03:48;11.10;99.90
26336;DHT22;14047;50.936;4.654;2023-04-10T06:06:16;11.00;99.90
26336;DHT22;14047;50.936;4.654;2023-04-10T06:08:42;11.10;99.90
26336;DHT22;14047;50.936;4.654;2023-04-10T06:11:08;11.20;99.90
26336;DHT22;14047;50.936;4.654;2023-04-10T06:13:34;11.20;99.90
26336;DHT22;14047;50.936;4.654;2023-04-10T06:16:01;11.20;99.90
26336;DHT22;14047;50.936;4.654;2023-04-10T06:18:29;11.30;99.90
26336;DHT22;14047;50.936;4.654;2023-04-10T06:20:55;11.30;99.90
26336;DHT22;14047;50.936;4.654;2023-04-10T06:23:22;11.30;99.90
26336;DHT22;14047;50.936;4.654;2023-04-10T06:25:48;11.50;99.90
26336;DHT22;14047;50.936;4.654;2023-04-10T06:28:14;11.60;99.90
26336;DHT22;14047;50.936;4.654;2023-04-10T06:30:43;11.60;99.90
26336;DHT22;14047;50.936;4.654;2023-04-10T06:33:09;11.80;99.90
26336;DHT22;14047;50.936;4.654;2023-04-10T06:35:39;11.80;99.90
26336;DHT22;14047;50.936;4.654;2023-04-10T06:38:06;11.90;99.90
26336;DHT22;14047;50.936;4.654;2023-04-10T06:40:34;12.00;99.90
26336;DHT22;14047;50.936;4.654;2023-04-10T06:43:00;12.10;99.90
26336;DHT22;14047;50.936;4.654;2023-04-10T06:45:32;12.10;99.90
26336;DHT22;14047;50.936;4.654;2023-04-10T06:47:58;12.10;99.90
26336;DHT22;14047;50.936;4.654;2023-04-10T06:50:24;12.30;99.90
26336;DHT22;14047;50.936;4.654;2023-04-10T06:52:50;12.40;99.90
26336;DHT22;14047;50.936;4.654;2023-04-10T06:55:17;12.40;99.90
26336;DHT22;14047;50.936;4.654;2023-04-10T06:57:43;12.50;99.90
26336;DHT22;14047;50.936;4.654;2023-04-10T07:00:10;12.60;99.90
26336;DHT22;14047;50.936;4.654;2023-04-10T07:02:36;12.80;99.90
26336;DHT22;14047;50.936;4.654;2023-04-10T07:05:02;12.70;99.90
26336;DHT22;14047;50.936;4.654;2023-04-10T07:07:28;12.90;99.90
26336;DHT22;14047;50.936;4.654;2023-04-10T07:09:54;12.90;99.90
26336;DHT22;14047;50.936;4.654;2023-04-10T07:12:22;13.00;99.90
26336;DHT22;14047;50.936;4.654;2023-04-10T07:14:48;13.20;99.90
26336;DHT22;14047;50.936;4.654;2023-04-10T07:17:14;13.20;99.90
26336;DHT22;14047;50.936;4.654;2023-04-10T07:19:40;13.20;99.90
26336;DHT22;14047;50.936;4.654;2023-04-10T07:22:06;13.40;99.90
26336;DHT22;14047;50.936;4.654;2023-04-10T07:24:32;13.70;99.90
26336;DHT22;14047;50.936;4.654;2023-04-10T07:26:58;13.90;99.90
26336;DHT22;14047;50.936;4.654;2023-04-10T07:29:26;14.10;99.90
26336;DHT22;14047;50.936;4.654;2023-04-10T07:31:52;14.20;99.90
26336;DHT22;14047;50.936;4.654;2023-04-10T07:34:17;14.30;99.90
26336;DHT22;14047;50.936;4.654;2023-04-10T07:36:43;14.40;99.90
26336;DHT22;14047;50.936;4.654;2023-04-10T07:39:09;14.20;99.90
26336;DHT22;14047;50.936;4.654;2023-04-10T07:41:35;14.20;99.90
26336;DHT22;14047;50.936;4.654;2023-04-10T07:44:01;14.20;99.90
26336;DHT22;14047;50.936;4.654;2023-04-10T07:46:27;14.50;99.90
26336;DHT22;14047;50.936;4.654;2023-04-10T07:48:53;14.70;99.90
26336;DHT22;14047;50.936;4.654;2023-04-10T07:51:20;14.90;99.90
26336;DHT22;14047;50.936;4.654;2023-04-10T07:53:46;14.80;99.90
26336;DHT22;14047;50.936;4.654;2023-04-10T07:56:19;14.90;99.90
26336;DHT22;14047;50.936;4.654;2023-04-10T07:58:45;15.10;99.90
26336;DHT22;14047;50.936;4.654;2023-04-10T08:01:11;15.10;99.90
26336;DHT22;14047;50.936;4.654;2023-04-10T08:03:39;15.10;99.90
26336;DHT22;14047;50.936;4.654;2023-04-10T08:06:07;15.40;99.90
26336;DHT22;14047;50.936;4.654;2023-04-10T08:08:40;15.50;99.90
26336;DHT22;14047;50.936;4.654;2023-04-10T08:11:21;15.50;99.90
26336;DHT22;14047;50.936;4.654;2023-04-10T08:13:55;15.50;99.90
26336;DHT22;14047;50.936;4.654;2023-04-10T08:16:25;15.50;99.90
26336;DHT22;14047;50.936;4.654;2023-04-10T08:18:55;15.60;99.90
26336;DHT22;14047;50.936;4.654;2023-04-10T08:21:23;15.80;99.90
26336;DHT22;14047;50.936;4.654;2023-04-10T08:23:56;16.00;99.90
26336;DHT22;14047;50.936;4.654;2023-04-10T08:26:23;16.00;99.90
26336;DHT22;14047;50.936;4.654;2023-04-10T08:28:51;15.90;99.90
26336;DHT22;14047;50.936;4.654;2023-04-10T08:31:21;15.90;99.90
26336;DHT22;14047;50.936;4.654;2023-04-10T08:33:48;15.90;99.90
26336;DHT22;14047;50.936;4.654;2023-04-10T08:36:14;16.10;99.90
26336;DHT22;14047;50.936;4.654;2023-04-10T08:38:41;16.20;99.90
26336;DHT22;14047;50.936;4.654;2023-04-10T08:41:11;16.40;99.90
26336;DHT22;14047;50.936;4.654;2023-04-10T08:43:37;16.50;99.90
26336;DHT22;14047;50.936;4.654;2023-04-10T08:46:03;16.40;99.90
26336;DHT22;14047;50.936;4.654;2023-04-10T08:48:57;16.40;99.90
26336;DHT22;14047;50.936;4.654;2023-04-10T08:51:30;16.40;99.90
26336;DHT22;14047;50.936;4.654;2023-04-10T08:54:05;16.70;99.90
26336;DHT22;14047;50.936;4.654;2023-04-10T08:56:34;16.80;99.90
26336;DHT22;14047;50.936;4.654;2023-04-10T08:59:03;16.70;99.90
26336;DHT22;14047;50.936;4.654;2023-04-10T09:01:30;16.80;99.90
26336;DHT22;14047;50.936;4.654;2023-04-10T09:03:57;16.90;99.90
26336;DHT22;14047;50.936;4.654;2023-04-10T09:06:23;17.10;99.90
26336;DHT22;14047;50.936;4.654;2023-04-10T09:08:48;17.20;99.90
26336;DHT22;14047;50.936;4.654;2023-04-10T09:11:14;17.20;99.90
26336;DHT22;14047;50.936;4.654;2023-04-10T09:13:42;17.20;99.90
26336;DHT22;14047;50.936;4.654;2023-04-10T09:16:09;17.10;99.90
26336;DHT22;14047;50.936;4.654;2023-04-10T09:18:46;17.00;99.90
26336;DHT22;14047;50.936;4.654;2023-04-10T09:21:20;17.10;99.90
26336;DHT22;14047;50.936;4.654;2023-04-10T09:23:47;17.20;99.90
26336;DHT22;14047;50.936;4.654;2023-04-10T09:26:28;17.20;99.90
26336;DHT22;14047;50.936;4.654;2023-04-10T09:28:55;17.10;99.90
26336;DHT22;14047;50.936;4.654;2023-04-10T09:31:36;17.30;99.90
26336;DHT22;14047;50.936;4.654;2023-04-10T09:34:18;17.50;99.90
26336;DHT22;14047;50.936;4.654;2023-04-10T09:36:55;17.70;99.90
26336;DHT22;14047;50.936;4.654;2023-04-10T09:41:57;18.00;99.90
26336;DHT22;14047;50.936;4.654;2023-04-10T09:44:33;18.20;99.90
26336;DHT22;14047;50.936;4.654;2023-04-10T09:52:29;18.50;99.90
26336;DHT22;14047;50.936;4.654;2023-04-10T09:54:57;18.40;99.90
26336;DHT22;14047;50.936;4.654;2023-04-10T09:57:25;18.30;99.90
26336;DHT22;14047;50.936;4.654;2023-04-10T09:59:53;18.30;99.90
26336;DHT22;14047;50.936;4.654;2023-04-10T10:02:22;18.40;99.90
26336;DHT22;14047;50.936;4.654;2023-04-10T10:04:50;18.40;99.90
26336;DHT22;14047;50.936;4.654;2023-04-10T10:07:18;18.50;99.90
26336;DHT22;14047;50.936;4.654;2023-04-10T10:09:47;18.90;99.90
26336;DHT22;14047;50.936;4.654;2023-04-10T10:12:33;19.10;99.90
26336;DHT22;14047;50.936;4.654;2023-04-10T10:20:23;19.60;99.90
26336;DHT22;14047;50.936;4.654;2023-04-10T10:22:50;19.40;99.90
26336;DHT22;14047;50.936;4.654;2023-04-10T10:25:17;19.40;99.90
26336;DHT22;14047;50.936;4.654;2023-04-10T10:27:45;19.50;99.90
26336;DHT22;14047;50.936;4.654;2023-04-10T10:30:16;19.60;99.90
26336;DHT22;14047;50.936;4.654;2023-04-10T10:32:46;19.70;99.90
26336;DHT22;14047;50.936;4.654;2023-04-10T10:35:13;19.90;99.90
26336;DHT22;14047;50.936;4.654;2023-04-10T10:37:40;19.80;99.90
26336;DHT22;14047;50.936;4.654;2023-04-10T10:40:17;19.90;99.90
26336;DHT22;14047;50.936;4.654;2023-04-10T10:45:32;20.30;99.90
26336;DHT22;14047;50.936;4.654;2023-04-10T10:47:59;20.60;99.90
26336;DHT22;14047;50.936;4.654;2023-04-10T10:50:51;20.60;99.90
26336;DHT22;14047;50.936;4.654;2023-04-10T10:58:53;21.20;99.90
26336;DHT22;14047;50.936;4.654;2023-04-10T11:01:20;21.40;99.90
26336;DHT22;14047;50.936;4.654;2023-04-10T11:03:47;21.40;99.90
26336;DHT22;14047;50.936;4.654;2023-04-10T11:06:20;21.30;99.90
26336;DHT22;14047;50.936;4.654;2023-04-10T11:08:51;21.10;99.90
26336;DHT22;14047;50.936;4.654;2023-04-10T11:11:24;21.20;99.90
26336;DHT22;14047;50.936;4.654;2023-04-10T11:16:39;21.10;99.90
26336;DHT22;14047;50.936;4.654;2023-04-10T11:19:07;21.20;99.90
26336;DHT22;14047;50.936;4.654;2023-04-10T11:24:26;21.70;99.90
26336;DHT22;14047;50.936;4.654;2023-04-10T11:26:52;22.00;99.90
26336;DHT22;14047;50.936;4.654;2023-04-10T11:34:19;21.90;99.90
26336;DHT22;14047;50.936;4.654;2023-04-10T11:36:45;21.60;99.90
26336;DHT22;14047;50.936;4.654;2023-04-10T11:39:14;21.70;99.90
26336;DHT22;14047;50.936;4.654;2023-04-10T11:41:51;21.60;99.90
26336;DHT22;14047;50.936;4.654;2023-04-10T11:44:19;21.60;99.90
26336;DHT22;14047;50.936;4.654;2023-04-10T11:46:51;21.50;99.90
26336;DHT22;14047;50.936;4.654;2023-04-10T11:49:21;21.50;99.90
26336;DHT22;14047;50.936;4.654;2023-04-10T11:51:48;21.40;99.90
26336;DHT22;14047;50.936;4.654;2023-04-10T11:54:23;21.50;99.90
26336;DHT22;14047;50.936;4.654;2023-04-10T11:56:56;21.50;99.90
26336;DHT22;14047;50.936;4.654;2023-04-10T11:59:23;21.40;99.90
26336;DHT22;14047;50.936;4.654;2023-04-10T12:01:50;21.30;99.90
26336;DHT22;14047;50.936;4.654;2023-04-10T12:04:21;21.40;99.90
26336;DHT22;14047;50.936;4.654;2023-04-10T12:06:51;20.90;99.90
26336;DHT22;14047;50.936;4.654;2023-04-10T12:09:19;20.50;99.90
26336;DHT22;14047;50.936;4.654;2023-04-10T12:11:56;20.40;99.90
26336;DHT22;14047;50.936;4.654;2023-04-10T12:14:30;20.30;99.90
26336;DHT22;14047;50.936;4.654;2023-04-10T12:16:57;20.00;99.90
26336;DHT22;14047;50.936;4.654;2023-04-10T12:19:23;20.00;99.90
26336;DHT22;14047;50.936;4.654;2023-04-10T12:21:50;20.00;99.90
26336;DHT22;14047;50.936;4.654;2023-04-10T12:24:45;20.00;99.90
26336;DHT22;14047;50.936;4.654;2023-04-10T12:27:22;20.10;99.90
26336;DHT22;14047;50.936;4.654;2023-04-10T12:29:50;19.90;99.90
26336;DHT22;14047;50.936;4.654;2023-04-10T12:32:17;19.90;99.90
26336;DHT22;14047;50.936;4.654;2023-04-10T12:34:54;19.80;99.90
26336;DHT22;14047;50.936;4.654;2023-04-10T12:37:47;19.70;99.90
26336;DHT22;14047;50.936;4.654;2023-04-10T12:40:14;19.70;99.90
26336;DHT22;14047;50.936;4.654;2023-04-10T12:42:40;19.60;99.90
26336;DHT22;14047;50.936;4.654;2023-04-10T12:45:07;19.70;99.90
26336;DHT22;14047;50.936;4.654;2023-04-10T12:47:48;19.70;99.90
26336;DHT22;14047;50.936;4.654;2023-04-10T12:50:17;19.70;99.90
26336;DHT22;14047;50.936;4.654;2023-04-10T12:52:44;19.60;99.90
26336;DHT22;14047;50.936;4.654;2023-04-10T12:55:15;19.60;99.90
26336;DHT22;14047;50.936;4.654;2023-04-10T12:57:46;19.40;99.90
26336;DHT22;14047;50.936;4.654;2023-04-10T13:00:17;19.30;99.90
26336;DHT22;14047;50.936;4.654;2023-04-10T13:02:44;19.40;99.90
26336;DHT22;14047;50.936;4.654;2023-04-10T13:05:10;19.50;99.90
26336;DHT22;14047;50.936;4.654;2023-04-10T13:07:37;19.60;99.90
26336;DHT22;14047;50.936;4.654;2023-04-10T13:10:04;19.70;99.90
26336;DHT22;14047;50.936;4.654;2023-04-10T13:12:31;19.70;99.90
26336;DHT22;14047;50.936;4.654;2023-04-10T13:14:59;19.60;99.90
26336;DHT22;14047;50.936;4.654;2023-04-10T13:17:26;19.50;99.90
26336;DHT22;14047;50.936;4.654;2023-04-10T13:19:52;19.40;99.90
26336;DHT22;14047;50.936;4.654;2023-04-10T13:22:19;19.50;99.90
26336;DHT22;14047;50.936;4.654;2023-04-10T13:24:45;19.50;99.90
26336;DHT22;14047;50.936;4.654;2023-04-10T13:27:11;19.50;99.90
26336;DHT22;14047;50.936;4.654;2023-04-10T13:29:41;19.50;99.90
26336;DHT22;14047;50.936;4.654;2023-04-10T13:32:08;19.40;99.90
26336;DHT22;14047;50.936;4.654;2023-04-10T13:34:34;19.10;99.90
26336;DHT22;14047;50.936;4.654;2023-04-10T13:37:00;19.10;99.90
26336;DHT22;14047;50.936;4.654;2023-04-10T13:39:28;18.90;99.90
26336;DHT22;14047;50.936;4.654;2023-04-10T13:41:54;19.10;99.90
26336;DHT22;14047;50.936;4.654;2023-04-10T13:44:20;19.10;99.90
26336;DHT22;14047;50.936;4.654;2023-04-10T13:46:46;19.10;99.90
26336;DHT22;14047;50.936;4.654;2023-04-10T13:49:12;19.20;99.90
26336;DHT22;14047;50.936;4.654;2023-04-10T13:51:43;19.40;99.90
26336;DHT22;14047;50.936;4.654;2023-04-10T13:54:09;19.60;99.90
26336;DHT22;14047;50.936;4.654;2023-04-10T13:56:36;19.80;99.90
26336;DHT22;14047;50.936;4.654;2023-04-10T13:59:02;19.90;99.90
26336;DHT22;14047;50.936;4.654;2023-04-10T14:01:28;19.60;99.90
26336;DHT22;14047;50.936;4.654;2023-04-10T14:03:54;19.50;99.90
26336;DHT22;14047;50.936;4.654;2023-04-10T14:06:20;19.60;99.90
26336;DHT22;14047;50.936;4.654;2023-04-10T14:08:46;19.60;99.90
26336;DHT22;14047;50.936;4.654;2023-04-10T14:11:12;19.60;99.90
26336;DHT22;14047;50.936;4.654;2023-04-10T14:13:38;19.60;99.90
26336;DHT22;14047;50.936;4.654;2023-04-10T14:16:04;19.70;99.90
26336;DHT22;14047;50.936;4.654;2023-04-10T14:18:31;19.50;99.90
26336;DHT22;14047;50.936;4.654;2023-04-10T14:20:56;19.50;99.90
26336;DHT22;14047;50.936;4.654;2023-04-10T14:23:22;19.40;99.90
26336;DHT22;14047;50.936;4.654;2023-04-10T14:25:49;19.40;99.90
26336;DHT22;14047;50.936;4.654;2023-04-10T14:28:15;19.40;99.90
26336;DHT22;14047;50.936;4.654;2023-04-10T14:30:48;19.50;99.90
26336;DHT22;14047;50.936;4.654;2023-04-10T14:33:15;19.30;99.90
26336;DHT22;14047;50.936;4.654;2023-04-10T14:35:41;19.30;99.90
26336;DHT22;14047;50.936;4.654;2023-04-10T14:38:07;19.40;99.90
26336;DHT22;14047;50.936;4.654;2023-04-10T14:40:33;19.30;99.90
26336;DHT22;14047;50.936;4.654;2023-04-10T14:42:59;19.30;99.90
26336;DHT22;14047;50.936;4.654;2023-04-10T14:45:25;19.30;99.90
26336;DHT22;14047;50.936;4.654;2023-04-10T14:47:52;19.60;99.90
26336;DHT22;14047;50.936;4.654;2023-04-10T14:50:18;19.40;99.90
26336;DHT22;14047;50.936;4.654;2023-04-10T14:52:44;19.30;99.90
26336;DHT22;14047;50.936;4.654;2023-04-10T14:55:10;19.30;99.90
26336;DHT22;14047;50.936;4.654;2023-04-10T14:57:36;19.10;99.90
26336;DHT22;14047;50.936;4.654;2023-04-10T15:00:02;18.90;99.90
26336;DHT22;14047;50.936;4.654;2023-04-10T15:02:28;18.80;99.90
26336;DHT22;14047;50.936;4.654;2023-04-10T15:04:55;18.40;99.90
26336;DHT22;14047;50.936;4.654;2023-04-10T15:07:22;17.60;99.90
26336;DHT22;14047;50.936;4.654;2023-04-10T15:09:49;16.50;99.90
26336;DHT22;14047;50.936;4.654;2023-04-10T15:12:15;15.90;99.90
26336;DHT22;14047;50.936;4.654;2023-04-10T15:14:41;15.60;99.90
26336;DHT22;14047;50.936;4.654;2023-04-10T15:17:07;15.50;99.90
26336;DHT22;14047;50.936;4.654;2023-04-10T15:19:33;15.30;99.90
26336;DHT22;14047;50.936;4.654;2023-04-10T15:21:59;15.20;99.90
26336;DHT22;14047;50.936;4.654;2023-04-10T15:24:25;15.10;99.90
26336;DHT22;14047;50.936;4.654;2023-04-10T15:26:51;14.90;99.90
26336;DHT22;14047;50.936;4.654;2023-04-10T15:29:18;14.70;99.90
26336;DHT22;14047;50.936;4.654;2023-04-10T15:31:43;14.70;99.90
26336;DHT22;14047;50.936;4.654;2023-04-10T15:34:09;14.70;99.90
26336;DHT22;14047;50.936;4.654;2023-04-10T15:36:35;14.70;99.90
26336;DHT22;14047;50.936;4.654;2023-04-10T15:39:01;14.90;99.90
26336;DHT22;14047;50.936;4.654;2023-04-10T15:41:28;14.80;99.90
26336;DHT22;14047;50.936;4.654;2023-04-10T15:43:57;14.70;99.90
26336;DHT22;14047;50.936;4.654;2023-04-10T15:46:24;14.60;99.90
26336;DHT22;14047;50.936;4.654;2023-04-10T15:48:50;14.60;99.90
26336;DHT22;14047;50.936;4.654;2023-04-10T15:51:16;14.50;99.90
26336;DHT22;14047;50.936;4.654;2023-04-10T15:53:42;14.50;99.90
26336;DHT22;14047;50.936;4.654;2023-04-10T15:56:08;14.50;99.90
26336;DHT22;14047;50.936;4.654;2023-04-10T15:58:34;14.40;99.90
26336;DHT22;14047;50.936;4.654;2023-04-10T16:01:00;14.20;99.90
26336;DHT22;14047;50.936;4.654;2023-04-10T16:03:26;14.20;99.90
26336;DHT22;14047;50.936;4.654;2023-04-10T16:05:53;14.30;99.90
26336;DHT22;14047;50.936;4.654;2023-04-10T16:08:19;14.30;99.90
26336;DHT22;14047;50.936;4.654;2023-04-10T16:10:44;14.20;99.90
26336;DHT22;14047;50.936;4.654;2023-04-10T16:13:10;14.10;99.90
26336;DHT22;14047;50.936;4.654;2023-04-10T16:15:37;14.00;99.90
26336;DHT22;14047;50.936;4.654;2023-04-10T16:18:04;13.70;99.90
26336;DHT22;14047;50.936;4.654;2023-04-10T16:20:30;13.40;99.90
26336;DHT22;14047;50.936;4.654;2023-04-10T16:22:57;13.30;99.90
26336;DHT22;14047;50.936;4.654;2023-04-10T16:25:23;13.10;99.90
26336;DHT22;14047;50.936;4.654;2023-04-10T16:27:49;12.90;99.90
26336;DHT22;14047;50.936;4.654;2023-04-10T16:30:15;12.80;99.90
26336;DHT22;14047;50.936;4.654;2023-04-10T16:32:42;12.70;99.90